createdAt,value
2017-11-04T00:00:22.248Z,0
2017-11-04T00:01:32.710Z,0
2017-11-04T00:02:43.623Z,0
2017-11-04T00:03:54.081Z,0
2017-11-04T00:05:04.600Z,0
2017-11-04T00:06:15.272Z,0
2017-11-04T00:07:25.744Z,0
2017-11-04T00:08:36.291Z,0
2017-11-04T00:09:46.778Z,0
2017-11-04T00:10:57.256Z,0
2017-11-04T00:12:07.889Z,0
2017-11-04T00:13:18.378Z,0
2017-11-04T00:14:29.858Z,0
2017-11-04T00:15:40.358Z,0
2017-11-04T00:16:50.882Z,0
2017-11-04T00:18:01.383Z,0
2017-11-04T00:19:12.297Z,0
2017-11-04T00:20:22.904Z,0
2017-11-04T00:21:33.370Z,0
2017-11-04T00:22:43.959Z,0
2017-11-04T00:23:54.455Z,0
2017-11-04T00:25:04.930Z,0
2017-11-04T00:26:15.084Z,0
2017-11-04T00:27:25.519Z,0
2017-11-04T00:28:35.690Z,0
2017-11-04T00:29:45.880Z,0
2017-11-04T00:30:56.580Z,0
2017-11-04T00:32:07.107Z,0
2017-11-04T00:33:17.600Z,0
2017-11-04T00:34:28.194Z,0
2017-11-04T00:35:38.694Z,0
2017-11-04T00:36:48.979Z,0
2017-11-04T00:37:59.434Z,0
2017-11-04T00:39:10.030Z,0
2017-11-04T00:40:20.569Z,0
2017-11-04T00:41:30.632Z,0
2017-11-04T00:42:41.118Z,0
2017-11-04T00:43:51.643Z,0
2017-11-04T00:45:02.144Z,0
2017-11-04T00:46:12.609Z,0
2017-11-04T00:47:23.087Z,0
2017-11-04T00:48:33.778Z,0
2017-11-04T00:49:44.258Z,0
2017-11-04T00:50:54.728Z,0
2017-11-04T00:52:05.208Z,0
2017-11-04T00:53:15.347Z,0
2017-11-04T00:54:25.899Z,0
2017-11-04T00:55:36.412Z,0
2017-11-04T00:56:46.855Z,0
2017-11-04T00:57:57.344Z,0
2017-11-04T00:59:07.795Z,0
2017-11-04T01:00:18.228Z,0
2017-11-04T01:01:28.693Z,0
2017-11-04T01:02:38.852Z,0
2017-11-04T01:03:49.379Z,0
2017-11-04T01:04:59.823Z,0
2017-11-04T01:06:10.321Z,0
2017-11-04T01:07:20.533Z,0
2017-11-04T01:08:30.990Z,0
2017-11-04T01:09:41.492Z,0
2017-11-04T01:10:51.662Z,0
2017-11-04T01:12:02.116Z,0
2017-11-04T01:13:12.581Z,0
2017-11-04T01:14:22.857Z,0
2017-11-04T01:15:33.339Z,0
2017-11-04T01:16:43.846Z,0
2017-11-04T01:17:54.331Z,0
2017-11-04T01:19:04.807Z,0
2017-11-04T01:20:15.270Z,0
2017-11-04T01:21:25.771Z,0
2017-11-04T01:22:35.930Z,0
2017-11-04T01:23:46.579Z,0
2017-11-04T01:24:56.745Z,0
2017-11-04T01:26:07.248Z,0
2017-11-04T01:27:17.696Z,0
2017-11-04T01:28:28.193Z,0
2017-11-04T01:29:38.797Z,0
2017-11-04T01:30:49.258Z,0
2017-11-04T01:31:59.747Z,0
2017-11-04T01:33:10.281Z,0
2017-11-04T01:34:20.568Z,0
2017-11-04T01:35:31.265Z,0
2017-11-04T01:36:41.921Z,0
2017-11-04T01:37:52.084Z,0
2017-11-04T01:39:02.564Z,0
2017-11-04T01:40:13.093Z,0
2017-11-04T01:41:23.230Z,0
2017-11-04T01:42:33.898Z,0
2017-11-04T01:43:44.352Z,0
2017-11-04T01:44:54.846Z,0
2017-11-04T01:46:05.293Z,0
2017-11-04T01:47:15.768Z,0
2017-11-04T01:48:26.228Z,0
2017-11-04T01:49:36.687Z,0
2017-11-04T01:50:47.176Z,0
2017-11-04T01:51:57.672Z,0
2017-11-04T01:53:08.179Z,0
2017-11-04T01:54:18.632Z,0
2017-11-04T01:55:29.105Z,0
2017-11-04T01:56:39.658Z,0
2017-11-04T01:57:50.111Z,0
2017-11-04T01:59:00.618Z,0
2017-11-04T02:00:11.070Z,0
2017-11-04T02:01:21.753Z,0
2017-11-04T02:02:32.461Z,0
2017-11-04T02:03:43.117Z,0
2017-11-04T02:04:53.568Z,0
2017-11-04T02:06:04.031Z,0
2017-11-04T02:07:14.546Z,0
2017-11-04T02:08:25.006Z,0
2017-11-04T02:09:35.105Z,0
2017-11-04T02:10:45.636Z,0
2017-11-04T02:11:56.097Z,0
2017-11-04T02:13:06.294Z,0
2017-11-04T02:14:16.828Z,0
2017-11-04T02:15:27.276Z,0
2017-11-04T02:16:37.976Z,0
2017-11-04T02:17:48.472Z,0
2017-11-04T02:18:58.946Z,0
2017-11-04T02:20:09.528Z,0
2017-11-04T02:21:20.073Z,0
2017-11-04T02:22:30.568Z,0
2017-11-04T02:23:41.049Z,0
2017-11-04T02:24:51.495Z,0
2017-11-04T02:26:01.670Z,0
2017-11-04T02:27:12.155Z,0
2017-11-04T02:28:22.594Z,0
2017-11-04T02:29:32.827Z,0
2017-11-04T02:30:43.346Z,0
2017-11-04T02:31:53.494Z,0
2017-11-04T02:33:04.174Z,0
2017-11-04T02:34:14.627Z,0
2017-11-04T02:35:25.300Z,0
2017-11-04T02:36:35.781Z,0
2017-11-04T02:37:46.243Z,0
2017-11-04T02:38:56.710Z,0
2017-11-04T02:40:07.278Z,0
2017-11-04T02:41:17.429Z,0
2017-11-04T02:42:28.048Z,0
2017-11-04T02:43:38.508Z,0
2017-11-04T02:44:49.068Z,0
2017-11-04T02:46:14.018Z,0
2017-11-04T02:47:24.675Z,0
2017-11-04T02:48:35.217Z,0
2017-11-04T02:49:46.016Z,0
2017-11-04T02:50:56.508Z,0
2017-11-04T02:52:07.131Z,0
2017-11-04T02:53:17.876Z,0
2017-11-04T02:54:28.537Z,0
2017-11-04T02:55:39.040Z,0
2017-11-04T02:56:49.073Z,0
2017-11-04T02:57:59.123Z,0
2017-11-04T02:59:09.614Z,0
2017-11-04T03:00:20.095Z,0
2017-11-04T03:01:30.557Z,0
2017-11-04T03:02:41.056Z,0
2017-11-04T03:03:51.513Z,0
2017-11-04T03:05:01.985Z,0
2017-11-04T03:06:12.582Z,0
2017-11-04T03:07:23.162Z,0
2017-11-04T03:08:33.592Z,0
2017-11-04T03:09:44.035Z,0
2017-11-04T03:10:54.615Z,0
2017-11-04T03:12:05.054Z,0
2017-11-04T03:13:15.494Z,0
2017-11-04T03:14:25.613Z,0
2017-11-04T03:15:36.040Z,0
2017-11-04T03:16:46.525Z,0
2017-11-04T03:17:56.970Z,0
2017-11-04T03:19:07.412Z,0
2017-11-04T03:20:17.832Z,0
2017-11-04T03:21:28.343Z,0
2017-11-04T03:22:38.972Z,0
2017-11-04T03:23:49.455Z,0
2017-11-04T03:25:00.009Z,0
2017-11-04T03:26:10.520Z,0
2017-11-04T03:27:20.985Z,0
2017-11-04T03:28:31.577Z,0
2017-11-04T03:29:42.063Z,0
2017-11-04T03:30:52.531Z,0
2017-11-04T03:32:03.133Z,0
2017-11-04T03:33:13.575Z,0
2017-11-04T03:34:24.028Z,0
2017-11-04T03:35:34.466Z,0
2017-11-04T03:36:44.924Z,0
2017-11-04T03:37:55.433Z,0
2017-11-04T03:39:06.558Z,0
2017-11-04T03:40:16.977Z,0
2017-11-04T03:41:27.418Z,0
2017-11-04T03:42:37.906Z,0
2017-11-04T03:43:48.384Z,0
2017-11-04T03:44:58.844Z,0
2017-11-04T03:46:09.513Z,0
2017-11-04T03:47:20.063Z,0
2017-11-04T03:48:30.494Z,0
2017-11-04T03:49:40.961Z,0
2017-11-04T03:50:51.400Z,0
2017-11-04T03:52:01.854Z,0
2017-11-04T03:53:12.544Z,0
2017-11-04T03:54:22.754Z,0
2017-11-04T03:55:33.205Z,0
2017-11-04T03:56:43.723Z,0
2017-11-04T03:57:54.164Z,0
2017-11-04T03:59:04.645Z,0
2017-11-04T04:00:15.091Z,0
2017-11-04T04:01:25.561Z,0
2017-11-04T04:02:36.005Z,0
2017-11-04T04:03:46.445Z,0
2017-11-04T04:04:56.882Z,0
2017-11-04T04:06:06.941Z,0
2017-11-04T04:07:17.372Z,0
2017-11-04T04:08:27.843Z,0
2017-11-04T04:09:38.352Z,0
2017-11-04T04:10:48.881Z,0
2017-11-04T04:11:59.375Z,0
2017-11-04T04:13:09.838Z,0
2017-11-04T04:14:20.305Z,0
2017-11-04T04:15:30.751Z,0
2017-11-04T04:16:41.213Z,0
2017-11-04T04:17:51.667Z,0
2017-11-04T04:19:02.099Z,0
2017-11-04T04:20:12.560Z,0
2017-11-04T04:21:23.018Z,0
2017-11-04T04:22:33.455Z,0
2017-11-04T04:23:43.949Z,0
2017-11-04T04:24:54.446Z,0
2017-11-04T04:26:04.927Z,0
2017-11-04T04:27:15.417Z,0
2017-11-04T04:28:25.863Z,0
2017-11-04T04:29:36.009Z,0
2017-11-04T04:30:46.524Z,0
2017-11-04T04:31:56.987Z,0
2017-11-04T04:33:07.534Z,0
2017-11-04T04:34:18.059Z,0
2017-11-04T04:35:28.486Z,0
2017-11-04T04:36:38.931Z,0
2017-11-04T04:37:49.729Z,0
2017-11-04T04:39:00.246Z,0
2017-11-04T04:40:10.714Z,0
2017-11-04T04:41:21.188Z,0
2017-11-04T04:42:31.687Z,0
2017-11-04T04:43:42.141Z,0
2017-11-04T04:44:52.670Z,0
2017-11-04T04:46:03.193Z,0
2017-11-04T04:47:13.662Z,0
2017-11-04T04:48:23.770Z,0
2017-11-04T04:49:34.212Z,0
2017-11-04T04:50:44.678Z,0
2017-11-04T04:51:55.121Z,0
2017-11-04T04:53:06.798Z,0
2017-11-04T04:54:17.282Z,0
2017-11-04T04:55:27.411Z,0
2017-11-04T04:56:37.863Z,0
2017-11-04T04:57:48.370Z,0
2017-11-04T04:58:58.831Z,0
2017-11-04T05:00:08.902Z,0
2017-11-04T05:01:19.103Z,0
2017-11-04T05:02:29.998Z,0
2017-11-04T05:03:40.208Z,0
2017-11-04T05:04:50.461Z,0
2017-11-04T05:06:00.991Z,0
2017-11-04T05:07:11.444Z,0
2017-11-04T05:08:21.953Z,0
2017-11-04T05:09:32.394Z,0
2017-11-04T05:10:42.864Z,0
2017-11-04T05:11:53.295Z,0
2017-11-04T05:13:03.855Z,0
2017-11-04T05:14:14.570Z,0
2017-11-04T05:15:25.271Z,0
2017-11-04T05:16:35.717Z,0
2017-11-04T05:17:46.198Z,0
2017-11-04T05:18:56.669Z,0
2017-11-04T05:20:07.215Z,0
2017-11-04T05:21:17.731Z,0
2017-11-04T05:22:28.205Z,0
2017-11-04T05:23:38.692Z,0
2017-11-04T05:24:49.142Z,0
2017-11-04T05:25:59.566Z,0
2017-11-04T05:27:09.725Z,0
2017-11-04T05:28:20.362Z,0
2017-11-04T05:29:30.677Z,0
2017-11-04T05:30:41.500Z,0
2017-11-04T05:31:51.960Z,0
2017-11-04T05:33:02.618Z,0
2017-11-04T05:34:13.067Z,0
2017-11-04T05:35:23.215Z,0
2017-11-04T05:36:33.897Z,4
2017-11-04T05:37:44.374Z,0
2017-11-04T05:38:54.510Z,0
2017-11-04T05:40:05.129Z,4
2017-11-04T05:41:15.635Z,0
2017-11-04T05:42:26.321Z,4
2017-11-04T05:43:36.762Z,4
2017-11-04T05:44:47.275Z,4
2017-11-04T05:45:57.408Z,4
2017-11-04T05:47:07.982Z,4
2017-11-04T05:48:18.430Z,8
2017-11-04T05:49:28.882Z,8
2017-11-04T05:50:39.365Z,12
2017-11-04T05:51:49.918Z,12
2017-11-04T05:53:00.372Z,12
2017-11-04T05:54:10.848Z,16
2017-11-04T05:55:21.294Z,20
2017-11-04T05:56:31.796Z,24
2017-11-04T05:57:42.474Z,32
2017-11-04T05:58:52.917Z,36
2017-11-04T06:00:03.409Z,44
2017-11-04T06:01:13.861Z,56
2017-11-04T06:02:24.009Z,68
2017-11-04T06:03:34.462Z,84
2017-11-04T06:04:44.598Z,96
2017-11-04T06:05:55.315Z,112
2017-11-04T06:07:05.787Z,132
2017-11-04T06:08:16.457Z,148
2017-11-04T06:09:26.912Z,160
2017-11-04T06:10:37.470Z,168
2017-11-04T06:11:48.060Z,172
2017-11-04T06:12:58.532Z,188
2017-11-04T06:14:09.094Z,204
2017-11-04T06:15:19.626Z,220
2017-11-04T06:16:30.068Z,228
2017-11-04T06:17:40.408Z,244
2017-11-04T06:18:51.038Z,260
2017-11-04T06:20:01.489Z,284
2017-11-04T06:21:11.953Z,308
2017-11-04T06:22:22.101Z,328
2017-11-04T06:23:32.884Z,352
2017-11-04T06:24:43.347Z,376
2017-11-04T06:25:53.839Z,392
2017-11-04T06:27:04.476Z,416
2017-11-04T06:28:15.012Z,448
2017-11-04T06:29:25.510Z,480
2017-11-04T06:30:35.956Z,520
2017-11-04T06:31:46.656Z,568
2017-11-04T06:32:57.167Z,612
2017-11-04T06:34:07.626Z,660
2017-11-04T06:35:18.119Z,712
2017-11-04T06:36:28.613Z,764
2017-11-04T06:37:39.079Z,832
2017-11-04T06:38:49.554Z,896
2017-11-04T06:39:59.776Z,940
2017-11-04T06:41:10.269Z,964
2017-11-04T06:42:20.817Z,996
2017-11-04T06:43:31.458Z,1028
2017-11-04T06:44:41.968Z,1092
2017-11-04T06:45:52.414Z,1172
2017-11-04T06:47:02.852Z,1272
2017-11-04T06:48:13.467Z,1392
2017-11-04T06:49:23.963Z,1452
2017-11-04T06:50:34.396Z,1484
2017-11-04T06:51:45.005Z,1496
2017-11-04T06:52:55.467Z,1520
2017-11-04T06:54:05.952Z,1572
2017-11-04T06:55:16.428Z,1624
2017-11-04T06:56:26.872Z,1732
2017-11-04T06:57:37.339Z,1844
2017-11-04T06:58:48.153Z,1968
2017-11-04T06:59:58.636Z,2072
2017-11-04T07:01:09.144Z,2088
2017-11-04T07:02:19.779Z,2088
2017-11-04T07:03:30.224Z,2232
2017-11-04T07:04:40.691Z,2320
2017-11-04T07:05:51.334Z,2472
2017-11-04T07:07:01.847Z,2536
2017-11-04T07:08:12.440Z,2544
2017-11-04T07:09:22.927Z,2672
2017-11-04T07:10:33.478Z,2892
2017-11-04T07:11:44.058Z,3156
2017-11-04T07:12:54.498Z,3344
2017-11-04T07:14:04.745Z,3448
2017-11-04T07:15:15.505Z,3720
2017-11-04T07:16:25.937Z,4208
2017-11-04T07:17:36.399Z,4752
2017-11-04T07:18:46.975Z,4748
2017-11-04T07:19:57.463Z,4272
2017-11-04T07:21:07.923Z,4268
2017-11-04T07:22:18.435Z,4872
2017-11-04T07:23:28.895Z,4824
2017-11-04T07:24:39.357Z,4148
2017-11-04T07:25:49.573Z,3760
2017-11-04T07:26:59.721Z,3764
2017-11-04T07:28:10.432Z,3680
2017-11-04T07:29:20.924Z,4036
2017-11-04T07:30:32.500Z,4352
2017-11-04T07:31:42.960Z,4340
2017-11-04T07:32:53.451Z,5256
2017-11-04T07:34:03.972Z,5812
2017-11-04T07:35:14.435Z,5576
2017-11-04T07:36:24.890Z,5216
2017-11-04T07:37:35.410Z,4816
2017-11-04T07:38:45.873Z,4888
2017-11-04T07:39:56.355Z,4328
2017-11-04T07:41:06.474Z,4304
2017-11-04T07:42:16.974Z,4348
2017-11-04T07:43:27.584Z,4512
2017-11-04T07:44:38.051Z,4748
2017-11-04T07:45:48.540Z,5180
2017-11-04T07:47:00.100Z,6084
2017-11-04T07:48:10.685Z,6852
2017-11-04T07:49:20.900Z,7336
2017-11-04T07:50:31.051Z,7056
2017-11-04T07:51:41.518Z,6044
2017-11-04T07:52:52.026Z,5620
2017-11-04T07:54:02.492Z,5644
2017-11-04T07:55:12.980Z,6468
2017-11-04T07:56:23.463Z,5872
2017-11-04T07:57:33.985Z,7448
2017-11-04T07:58:44.439Z,7912
2017-11-04T07:59:54.946Z,6960
2017-11-04T08:01:05.412Z,6420
2017-11-04T08:02:15.885Z,6284
2017-11-04T08:03:26.471Z,5848
2017-11-04T08:04:36.959Z,6468
2017-11-04T08:05:47.558Z,6732
2017-11-04T08:06:58.084Z,6836
2017-11-04T08:08:08.569Z,6780
2017-11-04T08:09:19.075Z,7020
2017-11-04T08:10:29.125Z,8536
2017-11-04T08:11:39.631Z,6792
2017-11-04T08:12:50.227Z,8032
2017-11-04T08:14:00.686Z,9224
2017-11-04T08:15:12.196Z,11536
2017-11-04T08:16:22.813Z,11764
2017-11-04T08:17:33.030Z,11964
2017-11-04T08:18:43.501Z,12348
2017-11-04T08:19:53.691Z,13888
2017-11-04T08:21:04.200Z,14944
2017-11-04T08:22:14.683Z,14720
2017-11-04T08:23:24.747Z,13984
2017-11-04T08:24:35.251Z,14176
2017-11-04T08:25:46.027Z,15872
2017-11-04T08:26:56.768Z,17760
2017-11-04T08:28:07.311Z,18752
2017-11-04T08:29:17.826Z,18880
2017-11-04T08:30:28.337Z,19392
2017-11-04T08:31:39.080Z,21216
2017-11-04T08:32:49.578Z,22400
2017-11-04T08:34:00.081Z,22560
2017-11-04T08:35:10.585Z,22720
2017-11-04T08:36:21.085Z,24384
2017-11-04T08:37:31.539Z,25696
2017-11-04T08:38:42.054Z,25440
2017-11-04T08:39:52.569Z,25184
2017-11-04T08:41:03.056Z,25760
2017-11-04T08:42:13.546Z,26144
2017-11-04T08:43:25.029Z,25088
2017-11-04T08:44:35.591Z,27328
2017-11-04T08:45:46.098Z,27968
2017-11-04T08:46:56.615Z,27712
2017-11-04T08:48:07.063Z,26848
2017-11-04T08:49:17.215Z,25120
2017-11-04T08:50:27.792Z,22272
2017-11-04T08:51:38.323Z,23552
2017-11-04T08:52:48.766Z,25408
2017-11-04T08:53:59.339Z,27616
2017-11-04T08:55:09.879Z,27744
2017-11-04T08:56:20.353Z,25952
2017-11-04T08:57:30.915Z,23872
2017-11-04T08:58:41.710Z,21216
2017-11-04T08:59:52.219Z,25152
2017-11-04T09:01:02.673Z,23904
2017-11-04T09:02:13.192Z,24032
2017-11-04T09:03:23.678Z,26912
2017-11-04T09:04:34.228Z,26464
2017-11-04T09:05:44.410Z,26752
2017-11-04T09:06:54.878Z,27264
2017-11-04T09:08:06.300Z,27712
2017-11-04T09:09:16.789Z,28864
2017-11-04T09:10:28.881Z,30816
2017-11-04T09:11:39.307Z,30752
2017-11-04T09:12:49.813Z,31008
2017-11-04T09:14:00.290Z,30208
2017-11-04T09:15:10.763Z,31808
2017-11-04T09:16:21.274Z,32000
2017-11-04T09:17:31.747Z,30016
2017-11-04T09:18:42.298Z,28672
2017-11-04T09:19:52.792Z,29728
2017-11-04T09:21:03.238Z,28320
2017-11-04T09:22:13.739Z,24416
2017-11-04T09:23:24.225Z,23360
2017-11-04T09:24:34.716Z,21120
2017-11-04T09:25:45.217Z,21024
2017-11-04T09:26:55.818Z,20384
2017-11-04T09:28:06.354Z,19360
2017-11-04T09:29:16.862Z,18304
2017-11-04T09:30:27.344Z,16736
2017-11-04T09:31:38.058Z,17376
2017-11-04T09:32:48.534Z,18144
2017-11-04T09:33:59.044Z,16480
2017-11-04T09:35:09.196Z,12908
2017-11-04T09:36:19.688Z,17088
2017-11-04T09:37:30.175Z,18528
2017-11-04T09:38:40.789Z,13696
2017-11-04T09:39:51.299Z,11792
2017-11-04T09:41:01.847Z,13776
2017-11-04T09:42:12.504Z,11276
2017-11-04T09:43:22.993Z,10184
2017-11-04T09:44:33.554Z,9876
2017-11-04T09:45:44.071Z,9560
2017-11-04T09:46:54.624Z,9684
2017-11-04T09:48:05.191Z,10200
2017-11-04T09:49:15.690Z,10532
2017-11-04T09:50:26.224Z,10376
2017-11-04T09:51:36.621Z,9808
2017-11-04T09:52:47.140Z,9396
2017-11-04T09:53:57.620Z,9544
2017-11-04T09:55:08.198Z,10116
2017-11-04T09:56:18.654Z,10676
2017-11-04T09:57:29.192Z,11064
2017-11-04T09:58:39.764Z,11532
2017-11-04T09:59:50.313Z,12144
2017-11-04T10:01:00.798Z,12792
2017-11-04T10:02:11.277Z,12732
2017-11-04T10:03:21.748Z,13060
2017-11-04T10:04:32.582Z,12780
2017-11-04T10:05:43.042Z,13008
2017-11-04T10:06:53.668Z,13080
2017-11-04T10:08:04.188Z,13856
2017-11-04T10:09:14.700Z,13852
2017-11-04T10:10:25.221Z,16320
2017-11-04T10:11:35.733Z,21728
2017-11-04T10:12:46.194Z,17952
2017-11-04T10:13:56.336Z,26144
2017-11-04T10:15:06.824Z,23200
2017-11-04T10:16:17.372Z,18176
2017-11-04T10:17:27.880Z,17600
2017-11-04T10:18:38.400Z,15808
2017-11-04T10:19:48.969Z,15104
2017-11-04T10:20:59.191Z,13884
2017-11-04T10:22:09.342Z,13740
2017-11-04T10:23:19.960Z,13232
2017-11-04T10:24:30.434Z,14032
2017-11-04T10:25:41.014Z,14912
2017-11-04T10:26:51.616Z,15456
2017-11-04T10:28:01.865Z,16000
2017-11-04T10:29:12.376Z,16672
2017-11-04T10:30:22.429Z,15744
2017-11-04T10:31:32.601Z,15456
2017-11-04T10:32:43.105Z,13596
2017-11-04T10:34:27.769Z,13804
2017-11-04T10:35:39.915Z,16320
2017-11-04T10:36:50.477Z,17920
2017-11-04T10:38:00.936Z,22752
2017-11-04T10:39:11.584Z,20640
2017-11-04T10:40:22.094Z,28800
2017-11-04T10:41:32.568Z,27872
2017-11-04T10:42:43.223Z,23520
2017-11-04T10:43:53.781Z,24896
2017-11-04T10:45:04.328Z,26144
2017-11-04T10:46:14.788Z,27232
2017-11-04T10:47:25.317Z,28608
2017-11-04T10:48:36.090Z,18080
2017-11-04T10:49:46.586Z,17056
2017-11-04T10:50:57.109Z,19744
2017-11-04T10:52:07.596Z,19648
2017-11-04T10:53:18.097Z,17216
2017-11-04T10:54:28.598Z,17568
2017-11-04T10:55:39.276Z,16384
2017-11-04T10:56:49.959Z,14784
2017-11-04T10:58:00.466Z,13664
2017-11-04T10:59:10.960Z,12696
2017-11-04T11:00:21.464Z,11912
2017-11-04T11:01:31.947Z,11288
2017-11-04T11:02:42.466Z,11104
2017-11-04T11:03:52.619Z,11300
2017-11-04T11:05:03.238Z,11788
2017-11-04T11:06:13.472Z,12332
2017-11-04T11:07:24.053Z,12724
2017-11-04T11:08:34.758Z,13064
2017-11-04T11:09:45.255Z,13420
2017-11-04T11:10:55.728Z,13228
2017-11-04T11:12:06.288Z,13244
2017-11-04T11:13:16.744Z,13496
2017-11-04T11:14:26.942Z,13396
2017-11-04T11:15:37.424Z,13120
2017-11-04T11:16:47.927Z,12656
2017-11-04T11:17:58.485Z,12396
2017-11-04T11:19:09.014Z,12336
2017-11-04T11:20:19.558Z,12372
2017-11-04T11:21:30.046Z,12532
2017-11-04T11:22:40.382Z,12448
2017-11-04T11:23:50.585Z,12036
2017-11-04T11:25:01.106Z,11616
2017-11-04T11:26:10.847Z,11376
2017-11-04T11:27:21.348Z,11136
2017-11-04T11:28:31.842Z,11104
2017-11-04T11:29:42.621Z,10868
2017-11-04T11:30:53.144Z,10368
2017-11-04T11:32:03.687Z,9732
2017-11-04T11:33:14.291Z,9388
2017-11-04T11:34:24.773Z,9668
2017-11-04T11:35:35.300Z,10340
2017-11-04T11:36:45.811Z,11080
2017-11-04T11:37:56.389Z,11656
2017-11-04T11:39:07.092Z,12000
2017-11-04T11:40:17.811Z,12856
2017-11-04T11:41:28.327Z,14080
2017-11-04T11:42:38.902Z,18592
2017-11-04T11:43:49.392Z,15584
2017-11-04T11:44:59.908Z,13804
2017-11-04T11:46:10.642Z,13300
2017-11-04T11:47:21.165Z,14300
2017-11-04T11:48:31.370Z,14208
2017-11-04T11:49:41.484Z,13064
2017-11-04T11:50:54.355Z,12528
2017-11-04T11:52:04.815Z,12664
2017-11-04T11:53:15.362Z,12604
2017-11-04T11:54:25.845Z,12928
2017-11-04T11:55:36.444Z,11364
2017-11-04T11:56:46.953Z,10656
2017-11-04T11:57:57.254Z,9988
2017-11-04T11:59:07.955Z,9140
2017-11-04T12:00:18.658Z,8528
2017-11-04T12:01:28.874Z,8620
2017-11-04T12:02:39.575Z,9372
2017-11-04T12:03:50.304Z,11124
2017-11-04T12:05:00.795Z,11060
2017-11-04T12:06:12.316Z,10596
2017-11-04T12:07:22.937Z,10856
2017-11-04T12:08:33.489Z,10976
2017-11-04T12:09:44.121Z,11884
2017-11-04T12:10:54.682Z,13012
2017-11-04T12:12:05.514Z,17504
2017-11-04T12:13:15.965Z,15584
2017-11-04T12:14:26.444Z,13900
2017-11-04T12:15:37.000Z,14052
2017-11-04T12:16:47.559Z,14912
2017-11-04T12:17:58.011Z,20832
2017-11-04T12:19:08.168Z,19648
2017-11-04T12:20:18.729Z,21920
2017-11-04T12:21:29.215Z,19904
2017-11-04T12:22:39.710Z,24384
2017-11-04T12:23:50.301Z,27072
2017-11-04T12:25:00.471Z,28224
2017-11-04T12:26:12.844Z,25408
2017-11-04T12:27:23.466Z,18304
2017-11-04T12:28:35.044Z,14504
2017-11-04T12:29:48.900Z,13420
2017-11-04T12:30:59.995Z,12516
2017-11-04T12:32:10.497Z,12320
2017-11-04T12:33:21.105Z,12648
2017-11-04T12:34:31.689Z,13000
2017-11-04T12:35:42.288Z,12240
2017-11-04T12:36:53.145Z,10964
2017-11-04T12:38:03.676Z,10280
2017-11-04T12:39:14.260Z,9620
2017-11-04T12:40:27.292Z,9316
2017-11-04T12:41:37.827Z,9220
2017-11-04T12:42:48.417Z,8860
2017-11-04T12:43:59.149Z,8436
2017-11-04T12:45:09.663Z,8196
2017-11-04T12:46:20.176Z,8284
2017-11-04T12:47:30.736Z,8536
2017-11-04T12:48:40.898Z,8476
2017-11-04T12:49:51.508Z,8164
2017-11-04T12:51:01.975Z,8028
2017-11-04T12:52:12.459Z,8184
2017-11-04T12:53:23.109Z,7780
2017-11-04T12:54:33.610Z,7660
2017-11-04T12:55:44.192Z,7688
2017-11-04T12:56:54.663Z,7800
2017-11-04T12:58:05.210Z,7916
2017-11-04T12:59:15.729Z,8036
2017-11-04T13:00:26.293Z,8124
2017-11-04T13:01:36.508Z,8324
2017-11-04T13:02:46.985Z,11000
2017-11-04T13:03:57.550Z,9848
2017-11-04T13:05:08.163Z,9976
2017-11-04T13:06:18.771Z,9972
2017-11-04T13:07:29.280Z,9816
2017-11-04T13:08:39.797Z,10140
2017-11-04T13:09:50.285Z,11104
2017-11-04T13:11:00.477Z,11440
2017-11-04T13:12:10.998Z,11972
2017-11-04T13:13:21.513Z,12052
2017-11-04T13:14:32.004Z,11536
2017-11-04T13:15:42.585Z,11124
2017-11-04T13:16:53.128Z,11232
2017-11-04T13:18:03.636Z,10944
2017-11-04T13:19:14.125Z,10580
2017-11-04T13:20:24.664Z,10000
2017-11-04T13:21:35.292Z,9748
2017-11-04T13:22:45.806Z,9356
2017-11-04T13:23:56.509Z,8996
2017-11-04T13:25:06.236Z,8628
2017-11-04T13:26:16.452Z,8332
2017-11-04T13:27:27.193Z,8092
2017-11-04T13:28:37.702Z,7876
2017-11-04T13:29:48.278Z,7800
2017-11-04T13:30:58.805Z,7740
2017-11-04T13:32:09.340Z,7740
2017-11-04T13:33:20.209Z,7632
2017-11-04T13:34:31.083Z,7532
2017-11-04T13:35:41.596Z,7384
2017-11-04T13:36:52.140Z,7240
2017-11-04T13:38:02.861Z,7136
2017-11-04T13:39:13.456Z,7028
2017-11-04T13:40:23.959Z,6856
2017-11-04T13:41:34.694Z,6632
2017-11-04T13:42:45.173Z,6332
2017-11-04T13:43:55.661Z,5972
2017-11-04T13:45:05.805Z,5604
2017-11-04T13:46:16.419Z,5248
2017-11-04T13:47:26.908Z,4968
2017-11-04T13:48:37.444Z,4740
2017-11-04T13:49:48.019Z,4584
2017-11-04T13:50:58.519Z,4464
2017-11-04T13:52:09.023Z,4352
2017-11-04T13:53:19.573Z,4232
2017-11-04T13:54:30.110Z,4124
2017-11-04T13:55:40.604Z,3996
2017-11-04T13:56:51.146Z,3820
2017-11-04T13:58:01.666Z,3632
2017-11-04T13:59:12.240Z,3448
2017-11-04T14:00:22.945Z,3272
2017-11-04T14:01:33.509Z,3132
2017-11-04T14:02:44.077Z,3012
2017-11-04T14:03:54.243Z,2904
2017-11-04T14:05:04.377Z,2788
2017-11-04T14:06:15.048Z,2672
2017-11-04T14:07:25.627Z,2540
2017-11-04T14:08:36.180Z,2436
2017-11-04T14:09:46.722Z,2380
2017-11-04T14:10:56.803Z,2452
2017-11-04T14:12:07.405Z,2628
2017-11-04T14:13:17.962Z,2872
2017-11-04T14:14:28.753Z,3164
2017-11-04T14:15:39.248Z,3480
2017-11-04T14:16:49.953Z,3708
2017-11-04T14:18:01.454Z,3756
2017-11-04T14:19:11.970Z,3648
2017-11-04T14:20:22.719Z,3444
2017-11-04T14:21:33.291Z,3032
2017-11-04T14:22:43.927Z,2684
2017-11-04T14:23:54.457Z,2624
2017-11-04T14:25:05.031Z,2636
2017-11-04T14:26:15.592Z,2692
2017-11-04T14:27:26.172Z,2612
2017-11-04T14:28:36.791Z,2540
2017-11-04T14:29:47.016Z,2416
2017-11-04T14:30:57.536Z,2240
2017-11-04T14:32:07.642Z,2024
2017-11-04T14:33:18.236Z,1816
2017-11-04T14:34:28.746Z,1576
2017-11-04T14:35:39.270Z,1320
2017-11-04T14:36:49.887Z,1100
2017-11-04T14:38:00.400Z,928
2017-11-04T14:39:11.144Z,808
2017-11-04T14:40:21.686Z,748
2017-11-04T14:41:32.199Z,724
2017-11-04T14:42:42.395Z,736
2017-11-04T14:43:52.931Z,760
2017-11-04T14:45:03.560Z,780
2017-11-04T14:46:14.079Z,840
2017-11-04T14:47:24.369Z,984
2017-11-04T14:48:34.977Z,1176
2017-11-04T14:49:45.529Z,1368
2017-11-04T14:50:56.398Z,1672
2017-11-04T14:52:06.961Z,2000
2017-11-04T14:53:17.481Z,2224
2017-11-04T14:54:28.040Z,2240
2017-11-04T14:55:38.552Z,2020
2017-11-04T14:56:49.058Z,1756
2017-11-04T14:57:59.588Z,1552
2017-11-04T14:59:10.097Z,1388
2017-11-04T15:00:20.608Z,1240
2017-11-04T15:01:31.124Z,1124
2017-11-04T15:02:41.630Z,1000
2017-11-04T15:03:52.129Z,912
2017-11-04T15:05:02.715Z,820
2017-11-04T15:06:13.318Z,748
2017-11-04T15:07:23.815Z,708
2017-11-04T15:08:34.441Z,672
2017-11-04T15:09:44.985Z,652
2017-11-04T15:10:55.163Z,652
2017-11-04T15:12:05.623Z,656
2017-11-04T15:13:16.494Z,668
2017-11-04T15:14:27.007Z,684
2017-11-04T15:15:37.518Z,716
2017-11-04T15:16:48.041Z,764
2017-11-04T15:17:58.597Z,812
2017-11-04T15:19:09.151Z,848
2017-11-04T15:20:19.668Z,844
2017-11-04T15:21:30.168Z,828
2017-11-04T15:22:40.942Z,812
2017-11-04T15:23:51.482Z,812
2017-11-04T15:25:02.007Z,784
2017-11-04T15:26:12.550Z,724
2017-11-04T15:27:23.108Z,648
2017-11-04T15:28:33.248Z,568
2017-11-04T15:29:43.823Z,504
2017-11-04T15:30:54.442Z,444
2017-11-04T15:32:05.002Z,384
2017-11-04T15:33:14.904Z,340
2017-11-04T15:34:25.477Z,292
2017-11-04T15:35:36.090Z,260
2017-11-04T15:36:46.665Z,228
2017-11-04T15:37:57.195Z,204
2017-11-04T15:39:07.734Z,184
2017-11-04T15:40:18.398Z,168
2017-11-04T15:41:28.943Z,152
2017-11-04T15:42:39.212Z,136
2017-11-04T15:43:49.717Z,120
2017-11-04T15:45:00.288Z,104
2017-11-04T15:46:10.828Z,88
2017-11-04T15:47:21.325Z,76
2017-11-04T15:48:31.883Z,68
2017-11-04T15:49:42.457Z,60
2017-11-04T15:50:53.061Z,44
2017-11-04T15:52:03.615Z,40
2017-11-04T15:53:14.159Z,36
2017-11-04T15:54:24.783Z,28
2017-11-04T15:55:34.982Z,20
2017-11-04T15:56:45.559Z,20
2017-11-04T15:57:56.083Z,20
2017-11-04T15:59:06.634Z,16
2017-11-04T16:00:17.186Z,12
2017-11-04T16:01:27.763Z,12
2017-11-04T16:02:38.332Z,4
2017-11-04T16:03:48.830Z,8
2017-11-04T16:04:59.445Z,4
2017-11-04T16:06:10.995Z,4
2017-11-04T16:07:21.512Z,4
2017-11-04T16:08:31.736Z,4
2017-11-04T16:09:42.387Z,0
2017-11-04T16:10:52.963Z,0
2017-11-04T16:12:03.483Z,4